createdAt,value
2022-12-09T00:01:20.677Z,20.90
2022-12-09T00:04:06.430Z,19.45
2022-12-09T00:06:51.977Z,33.42
2022-12-09T00:09:37.413Z,21.70
2022-12-09T00:12:22.810Z,18.02
2022-12-09T00:15:08.912Z,16.17
2022-12-09T00:17:54.437Z,15.10
2022-12-09T00:20:40.267Z,14.27
2022-12-09T00:23:25.725Z,17.33
2022-12-09T00:26:12.086Z,15.55
2022-12-09T00:28:59.161Z,16.27
2022-12-09T00:31:44.579Z,17.50
2022-12-09T00:34:30.473Z,19.02
2022-12-09T00:37:15.916Z,16.77
2022-12-09T00:40:01.815Z,20.23
2022-12-09T00:42:47.109Z,17.83
2022-12-09T00:45:32.701Z,15.68
2022-12-09T00:48:18.212Z,14.13
2022-12-09T00:51:04.918Z,15.40
2022-12-09T00:53:54.839Z,15.52
2022-12-09T00:56:40.401Z,17.40
2022-12-09T00:59:26.044Z,19.50
2022-12-09T01:02:11.869Z,19.02
2022-12-09T01:04:57.869Z,17.40
2022-12-09T01:07:43.552Z,18.85
2022-12-09T01:10:28.942Z,17.08
2022-12-09T01:13:15.841Z,15.57
2022-12-09T01:16:01.969Z,20.33
2022-12-09T01:18:47.532Z,18.30
2022-12-09T01:21:34.476Z,17.42
2022-12-09T01:24:20.448Z,18.45
2022-12-09T01:27:06.233Z,16.27
2022-12-09T01:29:51.582Z,14.90
2022-12-09T01:32:37.230Z,13.48
2022-12-09T01:35:22.891Z,12.25
2022-12-09T01:38:08.541Z,12.05
2022-12-09T01:40:54.079Z,12.60
2022-12-09T01:43:40.307Z,13.00
2022-12-09T01:46:25.672Z,10.50
2022-12-09T01:49:17.141Z,10.10
2022-12-09T01:52:21.357Z,10.05
2022-12-09T01:55:07.615Z,9.52
2022-12-09T01:57:54.151Z,10.93
2022-12-09T02:00:39.928Z,9.65
2022-12-09T02:03:25.780Z,10.80
2022-12-09T02:06:11.419Z,10.35
2022-12-09T02:08:57.565Z,11.90
2022-12-09T02:12:19.278Z,14.45
2022-12-09T02:15:29.762Z,11.93
2022-12-09T02:18:37.290Z,12.57
2022-12-09T02:21:34.031Z,11.43
2022-12-09T02:24:48.961Z,11.70
2022-12-09T02:27:57.069Z,9.70
2022-12-09T02:31:20.477Z,13.15
2022-12-09T02:34:12.261Z,11.63
2022-12-09T02:37:10.802Z,13.73
2022-12-09T02:40:17.890Z,15.77
2022-12-09T02:43:06.798Z,13.25
2022-12-09T02:45:54.832Z,14.95
2022-12-09T02:48:45.459Z,15.18
2022-12-09T02:51:35.500Z,14.10
2022-12-09T02:54:23.455Z,13.85
2022-12-09T02:57:16.285Z,13.85
2022-12-09T03:00:02.714Z,12.32
2022-12-09T03:02:51.527Z,14.35
2022-12-09T03:05:50.235Z,13.77
2022-12-09T03:08:46.013Z,15.20
2022-12-09T03:11:32.982Z,15.77
2022-12-09T03:14:31.626Z,15.48
2022-12-09T03:17:31.701Z,14.00
2022-12-09T03:20:24.938Z,13.73
2022-12-09T03:23:14.468Z,14.23
2022-12-09T03:26:02.156Z,11.93
2022-12-09T03:28:50.693Z,11.52
2022-12-09T03:31:38.189Z,12.43
2022-12-09T03:34:29.234Z,10.38
2022-12-09T03:37:18.949Z,10.82
2022-12-09T03:40:13.644Z,10.95
2022-12-09T03:43:12.732Z,11.27
2022-12-09T03:45:58.987Z,10.48
2022-12-09T03:48:44.766Z,12.95
2022-12-09T03:51:51.007Z,14.85
2022-12-09T03:54:44.689Z,12.43
2022-12-09T03:57:30.428Z,13.02
2022-12-09T04:00:18.218Z,13.20
2022-12-09T04:03:05.359Z,12.63
2022-12-09T04:05:51.256Z,11.52
2022-12-09T04:08:36.678Z,12.65
2022-12-09T04:11:23.056Z,10.18
2022-12-09T04:14:15.042Z,11.13
2022-12-09T04:17:01.708Z,12.82
2022-12-09T04:19:47.283Z,16.02
2022-12-09T04:22:32.879Z,13.68
2022-12-09T04:25:18.816Z,13.32
2022-12-09T04:28:04.477Z,12.00
2022-12-09T04:30:50.478Z,13.23
2022-12-09T04:33:35.893Z,11.63
2022-12-09T04:36:21.791Z,13.80
2022-12-09T04:39:07.531Z,10.98
2022-12-09T04:41:53.321Z,13.90
2022-12-09T04:44:38.715Z,10.32
2022-12-09T04:47:24.588Z,14.63
2022-12-09T04:50:10.912Z,13.07
2022-12-09T04:52:56.770Z,11.32
2022-12-09T04:55:42.284Z,12.95
2022-12-09T04:58:28.445Z,13.45
2022-12-09T05:01:18.298Z,11.00
2022-12-09T05:04:04.784Z,12.20
2022-12-09T05:06:50.850Z,13.73
2022-12-09T05:09:36.544Z,12.70
2022-12-09T05:12:22.600Z,14.43
2022-12-09T05:15:08.401Z,19.80
2022-12-09T05:17:54.051Z,19.45
2022-12-09T05:20:40.652Z,12.07
2022-12-09T05:23:26.550Z,14.98
2022-12-09T05:26:14.511Z,13.32
2022-12-09T05:29:00.171Z,11.70
2022-12-09T05:31:46.073Z,12.82
2022-12-09T05:34:32.114Z,11.65
2022-12-09T05:37:18.282Z,11.80
2022-12-09T05:40:03.960Z,11.45
2022-12-09T05:42:50.187Z,11.02
2022-12-09T05:45:36.179Z,12.27
2022-12-09T05:48:21.877Z,13.13
2022-12-09T05:51:26.357Z,15.93
2022-12-09T05:54:12.340Z,14.98
2022-12-09T05:56:59.531Z,11.82
2022-12-09T05:59:44.969Z,13.32
2022-12-09T06:02:31.381Z,12.75
2022-12-09T06:05:18.295Z,13.27
2022-12-09T06:08:07.090Z,12.90
2022-12-09T06:10:53.825Z,14.38
2022-12-09T06:13:39.447Z,12.55
2022-12-09T06:16:26.058Z,13.70
2022-12-09T06:19:12.871Z,15.82
2022-12-09T06:21:58.435Z,21.02
2022-12-09T06:24:44.439Z,13.25
2022-12-09T06:27:29.829Z,14.10
2022-12-09T06:30:16.118Z,18.35
2022-12-09T06:33:02.265Z,20.10
2022-12-09T06:35:48.288Z,17.63
2022-12-09T06:38:34.662Z,17.33
2022-12-09T06:41:20.264Z,18.25
2022-12-09T06:44:06.178Z,15.68
2022-12-09T06:46:52.257Z,15.93
2022-12-09T06:49:38.488Z,15.75
2022-12-09T06:52:24.717Z,15.07
2022-12-09T06:55:11.281Z,16.42
2022-12-09T06:57:59.187Z,18.88
2022-12-09T07:00:44.695Z,17.52
2022-12-09T07:03:31.033Z,14.60
2022-12-09T07:06:27.762Z,18.27
2022-12-09T07:09:21.465Z,15.52
2022-12-09T07:12:07.475Z,16.30
2022-12-09T07:14:53.448Z,22.48
2022-12-09T07:17:40.025Z,19.70
2022-12-09T07:20:26.027Z,34.63
2022-12-09T07:23:13.851Z,36.78
2022-12-09T07:26:02.350Z,26.92
2022-12-09T07:28:50.246Z,21.00
2022-12-09T07:31:36.592Z,23.85
2022-12-09T07:34:22.563Z,20.05
2022-12-09T07:37:08.446Z,21.13
2022-12-09T07:39:54.038Z,18.48
2022-12-09T07:42:39.743Z,21.40
2022-12-09T07:45:25.599Z,18.27
2022-12-09T07:48:12.712Z,17.88
2022-12-09T07:51:02.797Z,17.20
2022-12-09T07:53:48.795Z,19.92
2022-12-09T07:56:34.425Z,16.10
2022-12-09T07:59:20.414Z,22.20
2022-12-09T08:02:07.085Z,19.55
2022-12-09T08:04:53.558Z,17.30
2022-12-09T08:07:44.096Z,18.13
2022-12-09T08:10:29.994Z,16.77
2022-12-09T08:13:16.540Z,19.50
2022-12-09T08:16:06.966Z,35.35
2022-12-09T08:18:53.881Z,21.95
2022-12-09T08:21:39.982Z,16.75
2022-12-09T08:24:26.722Z,17.90
2022-12-09T08:27:12.608Z,21.77
2022-12-09T08:29:58.476Z,17.52
2022-12-09T08:32:44.202Z,20.08
2022-12-09T08:35:30.112Z,18.75
2022-12-09T08:38:16.154Z,21.27
2022-12-09T08:41:13.432Z,21.92
2022-12-09T08:43:59.240Z,17.63
2022-12-09T08:46:47.496Z,15.85
2022-12-09T08:49:33.894Z,18.42
2022-12-09T08:52:19.790Z,18.10
2022-12-09T08:55:05.613Z,17.33
2022-12-09T08:57:51.945Z,16.98
2022-12-09T09:00:37.802Z,17.55
2022-12-09T09:03:23.831Z,15.88
2022-12-09T09:06:11.362Z,18.10
2022-12-09T09:08:58.220Z,18.75
2022-12-09T09:11:44.363Z,19.75
2022-12-09T09:14:30.659Z,20.48
2022-12-09T09:17:16.113Z,20.90
2022-12-09T09:20:02.055Z,21.83
2022-12-09T09:22:48.399Z,18.77
2022-12-09T09:25:33.921Z,18.33
2022-12-09T09:28:20.015Z,19.23
2022-12-09T09:31:08.432Z,24.02
2022-12-09T09:33:54.443Z,20.40
2022-12-09T09:36:41.392Z,44.00
2022-12-09T09:39:28.020Z,45.75
2022-12-09T09:42:23.512Z,20.70
2022-12-09T09:48:03.613Z,20.73
2022-12-09T09:50:59.160Z,19.33
2022-12-09T09:53:49.856Z,20.23
2022-12-09T09:56:55.058Z,18.60
2022-12-09T10:00:09.409Z,20.73
2022-12-09T10:02:56.220Z,18.45
2022-12-09T10:05:58.337Z,19.27
2022-12-09T10:09:21.829Z,19.55
2022-12-09T10:12:17.655Z,18.15
2022-12-09T10:15:16.048Z,18.23
2022-12-09T10:18:26.218Z,20.40
2022-12-09T10:21:18.163Z,19.05
2022-12-09T10:24:17.786Z,19.00
2022-12-09T10:27:18.615Z,21.50
2022-12-09T10:30:13.829Z,21.67
2022-12-09T10:32:59.716Z,21.17
2022-12-09T10:35:46.810Z,18.73
2022-12-09T10:38:36.411Z,17.98
2022-12-09T10:41:53.964Z,18.05
2022-12-09T10:44:39.847Z,18.50
2022-12-09T10:47:29.377Z,21.08
2022-12-09T10:50:26.919Z,34.33
2022-12-09T10:53:15.528Z,19.48
2022-12-09T10:56:03.508Z,19.42
2022-12-09T10:58:49.466Z,23.02
2022-12-09T11:01:50.696Z,25.42
2022-12-09T11:04:39.573Z,20.67
2022-12-09T11:07:27.128Z,19.95
2022-12-09T11:10:22.318Z,22.30
2022-12-09T11:13:15.245Z,23.38
2022-12-09T11:16:04.970Z,25.40
2022-12-09T11:18:51.392Z,24.92
2022-12-09T11:21:37.795Z,21.42
2022-12-09T11:24:26.860Z,21.55
2022-12-09T11:27:26.731Z,26.88
2022-12-09T11:30:22.484Z,23.85
2022-12-09T11:33:26.365Z,24.10
2022-12-09T11:36:22.240Z,25.75
2022-12-09T11:39:17.062Z,25.60
2022-12-09T11:42:19.602Z,23.40
2022-12-09T11:45:19.858Z,28.85
2022-12-09T11:48:34.013Z,31.27
2022-12-09T11:51:30.914Z,25.70
2022-12-09T11:54:30.721Z,22.33
2022-12-09T11:57:45.701Z,30.15
2022-12-09T12:00:38.366Z,21.88
2022-12-09T12:03:52.292Z,24.27
2022-12-09T12:07:03.186Z,25.20
2022-12-09T12:09:55.683Z,26.35
2022-12-09T12:13:06.549Z,25.83
2022-12-09T12:16:00.944Z,26.88
2022-12-09T12:19:09.437Z,28.13
2022-12-09T12:22:06.917Z,28.55
2022-12-09T12:25:18.312Z,29.63
2022-12-09T12:28:20.742Z,27.67
2022-12-09T12:31:25.123Z,24.92
2022-12-09T12:34:31.934Z,30.40
2022-12-09T12:37:27.379Z,28.85
2022-12-09T12:40:28.849Z,24.58
2022-12-09T12:43:45.544Z,29.85
2022-12-09T12:46:57.087Z,27.85
2022-12-09T12:50:01.249Z,26.08
2022-12-09T12:52:59.238Z,27.65
2022-12-09T12:56:05.523Z,26.25
2022-12-09T12:59:02.862Z,25.67
2022-12-09T13:01:57.617Z,23.73
2022-12-09T13:04:52.641Z,28.67
2022-12-09T13:08:05.191Z,23.95
2022-12-09T13:10:54.777Z,27.23
2022-12-09T13:13:48.380Z,25.85
2022-12-09T13:16:39.700Z,27.10
2022-12-09T13:19:42.925Z,26.00
2022-12-09T13:22:53.838Z,27.80
2022-12-09T13:25:44.205Z,28.60
2022-12-09T13:29:06.836Z,30.63
2022-12-09T13:32:14.353Z,28.83
2022-12-09T13:35:16.570Z,27.30
2022-12-09T13:38:02.235Z,26.58
2022-12-09T13:40:47.653Z,21.33
2022-12-09T13:43:33.743Z,22.58
2022-12-09T13:46:28.427Z,23.17
2022-12-09T13:49:18.778Z,24.30
2022-12-09T13:52:04.417Z,25.92
2022-12-09T13:54:49.989Z,20.83
2022-12-09T13:57:51.021Z,22.55
2022-12-09T14:00:38.285Z,25.23
2022-12-09T14:03:52.584Z,47.33
2022-12-09T14:06:46.697Z,64.45
2022-12-09T14:09:35.316Z,33.00
2022-12-09T14:12:26.830Z,21.05
2022-12-09T14:15:25.190Z,22.67
2022-12-09T14:18:30.158Z,21.90
2022-12-09T14:21:18.728Z,24.45
2022-12-09T14:24:11.576Z,27.55
2022-12-09T14:27:00.146Z,26.15
2022-12-09T14:30:04.149Z,24.00
2022-12-09T14:32:49.319Z,26.77
2022-12-09T14:35:50.875Z,24.45
2022-12-09T14:39:33.389Z,23.38
2022-12-09T14:42:32.609Z,24.98
2022-12-09T14:45:44.981Z,26.55
2022-12-09T14:48:34.270Z,29.85
2022-12-09T14:51:30.484Z,22.63
2022-12-09T14:54:23.852Z,29.35
2022-12-09T14:57:21.416Z,28.33
2022-12-09T15:00:26.424Z,26.27
2022-12-09T15:03:44.940Z,22.70
2022-12-09T15:06:27.255Z,25.40
2022-12-09T15:09:16.370Z,24.95
2022-12-09T15:12:02.151Z,28.73
2022-12-09T15:14:53.045Z,23.83
2022-12-09T15:17:52.198Z,28.30
2022-12-09T15:20:40.894Z,30.35
2022-12-09T15:23:35.409Z,28.83
2022-12-09T15:26:29.844Z,26.50
2022-12-09T15:29:20.859Z,26.52
2022-12-09T15:32:23.737Z,24.33
2022-12-09T15:35:20.625Z,25.65
2022-12-09T15:38:08.570Z,31.50
2022-12-09T15:41:15.151Z,26.10
2022-12-09T15:44:07.312Z,26.33
2022-12-09T15:46:55.798Z,27.02
2022-12-09T15:49:50.113Z,28.00
2022-12-09T15:52:41.265Z,31.30
2022-12-09T15:55:33.200Z,28.63
2022-12-09T15:58:23.358Z,25.05
2022-12-09T16:01:09.822Z,25.77
2022-12-09T16:03:58.532Z,28.25
2022-12-09T16:06:44.429Z,30.58
2022-12-09T16:09:29.814Z,25.52
2022-12-09T16:12:27.346Z,29.65
2022-12-09T16:15:14.884Z,26.20
2022-12-09T16:18:03.016Z,30.95
2022-12-09T16:21:25.109Z,25.25
2022-12-09T16:24:13.188Z,24.45
2022-12-09T16:26:59.353Z,30.70
2022-12-09T16:29:53.583Z,34.78
2022-12-09T16:32:50.402Z,25.90
2022-12-09T16:35:43.007Z,26.35
2022-12-09T16:38:30.784Z,28.92
2022-12-09T16:41:16.392Z,30.42
2022-12-09T16:44:02.323Z,34.75
2022-12-09T16:46:47.984Z,33.83
2022-12-09T16:49:33.231Z,30.45
2022-12-09T16:52:22.350Z,28.65
2022-12-09T16:55:19.341Z,29.33
2022-12-09T16:58:05.730Z,29.05
2022-12-09T17:00:51.685Z,25.95
2022-12-09T17:04:00.985Z,23.70
2022-12-09T17:06:46.384Z,28.33
2022-12-09T17:09:31.880Z,25.95
2022-12-09T17:12:17.574Z,25.38
2022-12-09T17:15:03.254Z,30.90
2022-12-09T17:17:49.159Z,29.48
2022-12-09T17:20:34.730Z,30.88
2022-12-09T17:23:20.243Z,30.58
2022-12-09T17:26:08.652Z,33.22
2022-12-09T17:29:01.327Z,27.30
2022-12-09T17:31:49.732Z,30.60
2022-12-09T17:34:35.625Z,25.33
2022-12-09T17:37:21.116Z,28.23
2022-12-09T17:40:07.104Z,26.20
2022-12-09T17:42:52.703Z,27.63
2022-12-09T17:45:42.013Z,32.75
2022-12-09T17:48:29.632Z,30.17
2022-12-09T17:51:19.244Z,28.52
2022-12-09T17:54:04.926Z,29.45
2022-12-09T17:56:50.763Z,27.90
2022-12-09T17:59:36.217Z,44.75
2022-12-09T18:02:21.778Z,37.35
2022-12-09T18:05:07.424Z,39.92
2022-12-09T18:07:52.752Z,30.00
2022-12-09T18:10:38.683Z,30.90
2022-12-09T18:13:24.260Z,30.42
2022-12-09T18:16:14.286Z,27.70
2022-12-09T18:19:10.383Z,26.60
2022-12-09T18:21:56.807Z,28.15
2022-12-09T18:24:42.445Z,28.17
2022-12-09T18:27:27.720Z,28.63
2022-12-09T18:30:13.225Z,27.95
2022-12-09T18:32:59.108Z,29.90
2022-12-09T18:35:44.702Z,26.33
2022-12-09T18:38:30.452Z,30.85
2022-12-09T18:41:23.918Z,29.52
2022-12-09T18:44:10.151Z,37.15
2022-12-09T18:46:55.441Z,35.97
2022-12-09T18:49:40.878Z,38.25
2022-12-09T18:52:26.331Z,35.47
2022-12-09T18:55:11.848Z,33.17
2022-12-09T18:57:57.133Z,35.35
2022-12-09T19:00:42.589Z,33.40
2022-12-09T19:03:28.331Z,32.20
2022-12-09T19:06:26.016Z,34.92
2022-12-09T19:09:15.949Z,33.05
2022-12-09T19:12:23.119Z,36.97
2022-12-09T19:15:09.515Z,36.45
2022-12-09T19:17:55.351Z,38.97
2022-12-09T19:20:41.140Z,32.97
2022-12-09T19:23:26.520Z,32.03
2022-12-09T19:26:17.299Z,31.58
2022-12-09T19:29:06.319Z,31.70
2022-12-09T19:31:53.796Z,31.42
2022-12-09T19:34:39.308Z,32.58
2022-12-09T19:37:25.010Z,35.55
2022-12-09T19:40:11.360Z,36.33
2022-12-09T19:42:56.916Z,33.85
2022-12-09T19:45:42.617Z,33.53
2022-12-09T19:48:29.180Z,30.42
2022-12-09T19:51:17.260Z,31.75
2022-12-09T19:54:02.744Z,32.25
2022-12-09T19:56:48.940Z,33.33
2022-12-09T19:59:36.189Z,42.85
2022-12-09T20:02:22.507Z,49.92
2022-12-09T20:05:07.940Z,45.47
2022-12-09T20:07:54.224Z,42.80
2022-12-09T20:10:47.070Z,44.58
2022-12-09T20:13:33.404Z,37.72
2022-12-09T20:16:22.874Z,38.05
2022-12-09T20:19:08.960Z,38.50
2022-12-09T20:21:54.381Z,44.83
2022-12-09T20:24:39.778Z,42.88
2022-12-09T20:27:25.381Z,41.20
2022-12-09T20:30:11.621Z,34.95
2022-12-09T20:32:57.764Z,35.03
2022-12-09T20:35:43.282Z,36.47
2022-12-09T20:38:29.276Z,40.08
2022-12-09T20:41:15.208Z,35.67
2022-12-09T20:44:00.969Z,40.28
2022-12-09T20:46:49.718Z,39.70
2022-12-09T20:49:35.337Z,35.15
2022-12-09T20:52:20.829Z,33.90
2022-12-09T20:55:06.784Z,39.13
2022-12-09T20:57:52.268Z,34.75
2022-12-09T21:00:37.842Z,37.88
2022-12-09T21:03:23.582Z,34.67
2022-12-09T21:06:11.955Z,47.55
2022-12-09T21:09:03.767Z,47.53
2022-12-09T21:11:50.197Z,50.50
2022-12-09T21:14:37.071Z,42.17
2022-12-09T21:17:22.592Z,52.70
2022-12-09T21:20:09.212Z,54.95
2022-12-09T21:23:25.164Z,52.83
2022-12-09T21:26:09.722Z,48.53
2022-12-09T21:28:55.346Z,47.33
2022-12-09T21:31:42.205Z,49.08
2022-12-09T21:34:28.110Z,53.20
2022-12-09T21:37:13.950Z,56.92
2022-12-09T21:39:59.700Z,62.30
2022-12-09T21:42:45.172Z,57.47
2022-12-09T21:45:31.115Z,57.80
2022-12-09T21:48:17.010Z,63.15
2022-12-09T21:51:02.906Z,69.63
2022-12-09T21:53:49.420Z,67.05
2022-12-09T21:56:36.712Z,59.08
2022-12-09T21:59:22.403Z,64.80
2022-12-09T22:02:07.945Z,65.97
2022-12-09T22:04:53.795Z,75.03
2022-12-09T22:07:39.125Z,62.40
2022-12-09T22:10:24.634Z,68.15
2022-12-09T22:13:10.283Z,65.10
2022-12-09T22:15:55.997Z,70.85
2022-12-09T22:18:42.370Z,72.32
2022-12-09T22:21:30.169Z,63.90
2022-12-09T22:24:17.328Z,62.75
2022-12-09T22:27:02.684Z,55.20
2022-12-09T22:29:48.324Z,53.05
2022-12-09T22:32:37.950Z,54.63
2022-12-09T22:35:26.394Z,53.80
2022-12-09T22:38:14.697Z,56.60
2022-12-09T22:41:05.065Z,46.00
2022-12-09T22:43:50.358Z,55.80
2022-12-09T22:46:35.744Z,64.82
2022-12-09T22:49:21.170Z,53.95
2022-12-09T22:52:06.779Z,56.38
2022-12-09T22:54:52.416Z,57.83
2022-12-09T22:57:38.081Z,66.47
2022-12-09T23:00:23.434Z,56.47
2022-12-09T23:03:09.116Z,63.50
2022-12-09T23:05:54.811Z,59.17
2022-12-09T23:08:42.359Z,60.55
2022-12-09T23:11:28.877Z,65.78
2022-12-09T23:14:15.368Z,70.30
2022-12-09T23:17:00.927Z,66.05
2022-12-09T23:19:46.960Z,62.60
2022-12-09T23:22:32.503Z,64.90
2022-12-09T23:25:17.914Z,55.03
2022-12-09T23:28:04.386Z,64.68
2022-12-09T23:30:49.901Z,66.15
2022-12-09T23:33:36.385Z,72.00
2022-12-09T23:36:26.082Z,68.32
2022-12-09T23:39:14.152Z,74.20
2022-12-09T23:41:59.185Z,66.10
2022-12-09T23:44:44.909Z,55.25
2022-12-09T23:47:30.224Z,71.10
2022-12-09T23:50:16.308Z,64.82
2022-12-09T23:53:02.060Z,58.85
2022-12-09T23:55:47.566Z,68.18
2022-12-09T23:58:33.585Z,62.92
